Ingram, Texas
Current Conditions -  °F | °C
As of 7:55 PM on Saturday 20 Dec 2014 (Local Time) from KERV Reporting Station
Clear Clear  
Wind Chill: 42°   Ceiling: Unl
Heat Index: 45°   Visibility: 10mi
Dew Point: 41°   Wind: 5mph
Humidity: 88%   Direction: 110°ESE
Pressure: 30.15"   Gusts: NA
Location:  30.08°N, 99.24°W
Report Text: KERV 210155Z AUTO 11004KT 10SM CLR 07/05 A3015 RMK AO2 T00700052
Loading
Personal Weather Stations






























Interactive Weather Map New forecast layout! Learn more

10-Day Weather Forecast

Advertisements
Track Severe Weather on mobile